»·PEaware :: N900TB KONT-KSBP

N900TB :: KONT-KSBP

FLIGHT INFORMATION

Flight Status: Arrived
Operator: Privately registered:
United States
More flights under this callsign
Pilot: Saso K. (7898)
Aircraft: SOCATA TBM-900
(TBM9)
More flights by this aircraft type
Origin: KONT Ontario Intl
United States
Destination: KSBP San Luis Co Regl
United States
More flights between these airports :: More routes between these airports
Route: +POM GMN MQO
File this flight plan on PilotEdge
Remarks: / JOKE BLAME MARCUS
Altitude:
(Current/Filed)
22,000ft
Speed:
(Current/Filed)
300kts
Departed: 25-May-18 05:06 PM
Arrived: 25-May-18 05:55 PM
Distance/Time
Traveled:
166nm/0:49
Distance/Time
To Go:
Arrived

Flight Plot

Page will automatically refresh every two minutes.

Flight plan parsing failed; only flown route is shown


Map Options




Map Legend


Flown Route
Filed Route
Departure Airport
Arrival Airport
Navaid (VOR, NDB)
Fix

Horizontal Profiles

Position Reports

Time Latitude Longitude Heading Altitude Ground
Speed
25-May-18 16:27 34.051773 -117.600797 246 907ft 0kts
25-May-18 16:28 34.051773 -117.600797 246 907ft 0kts
25-May-18 16:29 34.051773 -117.600797 246 907ft 0kts
25-May-18 16:30 34.051773 -117.600797 246 907ft 0kts
25-May-18 16:31 34.051773 -117.600797 246 907ft 0kts
25-May-18 16:32 34.051773 -117.600797 246 907ft 0kts
25-May-18 16:33 34.051773 -117.600797 246 907ft 0kts
25-May-18 16:34 34.051774 -117.600797 246 907ft 0kts
25-May-18 16:35 34.051774 -117.600797 246 907ft 0kts
25-May-18 16:36 34.051774 -117.600797 246 907ft 0kts
25-May-18 16:37 34.051773 -117.600797 246 907ft 0kts
25-May-18 16:38 34.051774 -117.600797 246 907ft 0kts
25-May-18 16:39 34.051773 -117.600797 246 907ft 0kts
25-May-18 16:40 34.051773 -117.600797 246 907ft 0kts
25-May-18 16:41 34.051774 -117.600797 246 907ft 0kts
25-May-18 16:42 34.051774 -117.600797 246 907ft 0kts
25-May-18 16:43 34.051773 -117.600797 246 907ft 0kts
25-May-18 16:44 34.051773 -117.600797 246 907ft 0kts
25-May-18 16:45 34.051774 -117.600797 246 907ft 0kts
25-May-18 16:46 34.051774 -117.600797 246 907ft 0kts
25-May-18 16:47 34.051774 -117.600797 246 907ft 0kts
25-May-18 16:48 34.051774 -117.600797 246 907ft 0kts
25-May-18 16:49 34.051774 -117.600797 246 907ft 0kts
25-May-18 16:50 34.051774 -117.600797 246 907ft 0kts
25-May-18 16:51 34.051774 -117.600797 246 907ft 0kts
25-May-18 16:52 34.051773 -117.600797 246 907ft 0kts
25-May-18 16:53 34.051773 -117.600797 246 907ft 0kts
25-May-18 16:54 34.051773 -117.600797 246 907ft 0kts
25-May-18 16:55 34.052356 -117.601380 356 909ft 6kts
25-May-18 16:56 34.052467 -117.601385 1 910ft 0kts
25-May-18 16:57 34.052961 -117.601846 307 911ft 2kts
25-May-18 16:58 34.053169 -117.602143 298 912ft 5kts
25-May-18 16:59 34.053908 -117.596886 93 914ft 26kts
25-May-18 17:00 34.053915 -117.587644 90 914ft 32kts
25-May-18 17:01 34.053948 -117.582874 62 915ft 0kts
25-May-18 17:02 34.053948 -117.582874 62 915ft 0kts
25-May-18 17:03 34.054344 -117.582712 355 918ft 2kts
25-May-18 17:04 34.054951 -117.583015 270 921ft 0kts
25-May-18 17:05 34.054951 -117.583015 270 921ft 0kts
25-May-18 17:06 34.054894 -117.603599 271 1453ft 117kts
25-May-18 17:07 34.057384 -117.644713 271 3413ft 128kts
25-May-18 17:08 34.059193 -117.687424 272 5031ft 139kts
25-May-18 17:09 34.062003 -117.726042 287 6963ft 125kts
25-May-18 17:10 34.069572 -117.752210 282 8258ft 128kts
25-May-18 17:11 34.079947 -117.788172 300 10027ft 134kts
25-May-18 17:12 34.103168 -117.822911 301 11985ft 137kts
25-May-18 17:13 34.127009 -117.857893 299 13795ft 139kts
25-May-18 17:14 34.151439 -117.893589 297 15761ft 141kts
25-May-18 17:15 34.176149 -117.929749 295 17708ft 144kts
25-May-18 17:16 34.201163 -117.966383 293 19643ft 147kts
25-May-18 17:17 34.226757 -118.003938 292 21428ft 155kts
25-May-18 17:18 34.257806 -118.049620 296 22161ft 212kts
25-May-18 17:19 34.298592 -118.109704 297 22126ft 257kts
25-May-18 17:20 34.343517 -118.175839 298 22107ft 270kts
25-May-18 17:21 34.389236 -118.243281 298 22119ft 275kts
25-May-18 17:22 34.435650 -118.311897 298 22129ft 276kts
25-May-18 17:23 34.483390 -118.382619 298 22117ft 278kts
25-May-18 17:24 34.531630 -118.454224 298 22116ft 278kts
25-May-18 17:25 34.579331 -118.525173 298 22127ft 278kts
25-May-18 17:26 34.627329 -118.596712 298 22122ft 279kts
25-May-18 17:27 34.674909 -118.667776 298 22125ft 279kts
25-May-18 17:28 34.722912 -118.739610 298 22122ft 280kts
25-May-18 17:29 34.771597 -118.812618 298 22132ft 280kts
25-May-18 17:30 34.810318 -118.887860 279 22137ft 261kts
25-May-18 17:31 34.830894 -118.971300 279 22118ft 259kts
25-May-18 17:32 34.851095 -119.054077 279 22103ft 256kts
25-May-18 17:33 34.870684 -119.134607 280 22095ft 255kts
25-May-18 17:34 34.890917 -119.218311 280 21385ft 268kts
25-May-18 17:35 34.912246 -119.306616 281 20106ft 276kts
25-May-18 17:36 34.933716 -119.395896 282 18869ft 279kts
25-May-18 17:37 34.955218 -119.485591 283 17644ft 282kts
25-May-18 17:38 34.976597 -119.575102 284 16434ft 276kts
25-May-18 17:39 34.997505 -119.662983 284 15272ft 274kts
25-May-18 17:40 35.018806 -119.752798 284 14070ft 281kts
25-May-18 17:41 35.040480 -119.844523 285 12815ft 281kts
25-May-18 17:42 35.061828 -119.935207 285 11602ft 277kts
25-May-18 17:43 35.082457 -120.023153 285 10427ft 271kts
25-May-18 17:44 35.101961 -120.106630 285 9315ft 265kts
25-May-18 17:45 35.116916 -120.170830 285 8481ft 262kts
25-May-18 17:46 35.129768 -120.226082 285 8057ft 252kts
25-May-18 17:47 35.145579 -120.294318 285 8058ft 236kts
25-May-18 17:48 35.157899 -120.347644 285 7018ft 233kts
25-May-18 17:49 35.170938 -120.404190 286 5260ft 221kts
25-May-18 17:50 35.182545 -120.460847 263 4440ft 186kts
25-May-18 17:51 35.157649 -120.515248 242 3482ft 186kts
25-May-18 17:52 35.170461 -120.559348 322 2480ft 167kts
25-May-18 17:53 35.207036 -120.592440 319 1500ft 150kts
25-May-18 17:54 35.227207 -120.623217 305 489ft 82kts
25-May-18 17:55 35.237325 -120.640839 306 187ft 13kts
25-May-18 17:56 35.237844 -120.640441 91 188ft 0kts
25-May-18 17:57 35.238281 -120.639884 305 190ft 0kts
25-May-18 17:58 35.238281 -120.639884 305 190ft 0kts
25-May-18 17:59 35.238281 -120.639884 305 190ft 0kts
25-May-18 18:00 35.238281 -120.639884 305 190ft 0kts
25-May-18 18:01 35.238281 -120.639884 305 190ft 0kts

Navigation Log

Ident Type
Flight plan parsing failed, navigation log unavailable